Aeroporto :
LOGIN :

Iscrizione | Disclaimer

   EN    FR    IT 

 










Sommario :    VFR   VFR Marginale   IFR   IFR Intensivo   IFR Molto Intensivo
Visibilità : 
Base nubi : 
>= 8 km
>= 3000ft
5 / 8 km
1000 / 3000 ft
1500m / 5 km
500 / 1000 ft
800 / 1500m
200 / 500 ft
< 800m
< 200 ft
Simboli :   Temporali  Nebbia  Neve Forte  Precipitazioni Forti  Vento > 20 kt
SIGMETs :   Varie  Temporali  Ghiacco  Turbolenza  Onda orograficha  Ceneri Vulcaniche






- Altitudine del aeroporto : 659 ft
- Codice IATA : LGG


EBLG - Liège

ULTIMO METAR :
  • 181050Z 25010KT 9999 SCT014 BKN025 05/02 Q1026 NOSIG

METARs OBSOLETI :
  • 181020Z 23010KT 9999 FEW014 05/02 Q1025 NOSIG
  • 180950Z 24010KT 9999 FEW014 BKN022 04/02 Q1025 NOSIG
  • 180920Z 24009KT 9999 SCT014 BKN022 04/02 Q1025 NOSIG
  • 180850Z 24008KT 9999 SCT013 BKN018 04/02 Q1025 NOSIG
  • 180820Z 23010KT 9999 SCT013 BKN018 03/02 Q1024 NOSIG

TAF TAF EBLG
Valido dal 18 a 06 ore il 19 a 12 ore UTC


180501Z 1806/1912 25008KT 9999 FEW020
PROB40
TEMPO 1806/1807 SHRA SCT008 BKN012
PROB30
TEMPO 1900/1910 SHRA BKN012TCU



MetMap, La meteo Aeronautica in un colpo d'occhio ! - Copyright ORBIFLY Dicembre 2007 - Disclaimer

ORBIFLY MET'MAP TEAM :

Programmazione e sviluppo : Alexandra Zaïnal
Concezione : Baudouin d'Aumeries
Aiuto per la programmazione : Marc-Olivier Méhu
Supporto tecnico e logistico : Manuel Goepfert
Aiuto per la traduzione : Arnaldo La Scala

Contatto : metmap@orbifly.com




FONTI E CREDITI :

   NOAA